sensor_id;sensor_type;location;lat;lon;timestamp;pressure;altitude;pressure_sealevel;temperature;humidity
35489;BME280;21602;55.670;37.578;2023-04-08T00:00:44;100297.50;;;5.81;46.10
35489;BME280;21602;55.670;37.578;2023-04-08T00:03:10;100297.31;;;5.82;46.02
35489;BME280;21602;55.670;37.578;2023-04-08T00:05:36;100298.13;;;5.83;46.33
35489;BME280;21602;55.670;37.578;2023-04-08T00:08:04;100299.47;;;5.79;46.32
35489;BME280;21602;55.670;37.578;2023-04-08T00:10:30;100288.25;;;5.77;46.55
35489;BME280;21602;55.670;37.578;2023-04-08T00:12:56;100295.56;;;5.75;46.41
35489;BME280;21602;55.670;37.578;2023-04-08T00:15:21;100300.88;;;5.75;46.41
35489;BME280;21602;55.670;37.578;2023-04-08T00:17:47;100299.88;;;5.76;46.52
35489;BME280;21602;55.670;37.578;2023-04-08T00:20:13;100291.91;;;5.76;46.50
35489;BME280;21602;55.670;37.578;2023-04-08T00:22:40;100296.38;;;5.75;46.61
35489;BME280;21602;55.670;37.578;2023-04-08T00:25:06;100299.56;;;5.71;46.74
35489;BME280;21602;55.670;37.578;2023-04-08T00:27:34;100295.44;;;5.68;46.69
35489;BME280;21602;55.670;37.578;2023-04-08T00:30:03;100293.81;;;5.67;46.72
35489;BME280;21602;55.670;37.578;2023-04-08T00:32:29;100293.31;;;5.63;46.96
35489;BME280;21602;55.670;37.578;2023-04-08T00:34:56;100294.16;;;5.64;47.12
35489;BME280;21602;55.670;37.578;2023-04-08T00:37:22;100294.34;;;5.62;46.99
35489;BME280;21602;55.670;37.578;2023-04-08T00:39:49;100297.28;;;5.68;47.39
35489;BME280;21602;55.670;37.578;2023-04-08T00:42:16;100300.56;;;5.70;47.37
35489;BME280;21602;55.670;37.578;2023-04-08T00:44:42;100293.31;;;5.63;47.60
35489;BME280;21602;55.670;37.578;2023-04-08T00:47:14;100295.97;;;5.63;47.47
35489;BME280;21602;55.670;37.578;2023-04-08T00:49:42;100291.06;;;5.60;47.68
35489;BME280;21602;55.670;37.578;2023-04-08T00:52:08;100296.22;;;5.54;47.82
35489;BME280;21602;55.670;37.578;2023-04-08T00:54:36;100290.44;;;5.50;47.63
35489;BME280;21602;55.670;37.578;2023-04-08T00:57:03;100294.91;;;5.50;48.01
35489;BME280;21602;55.670;37.578;2023-04-08T00:59:30;100296.75;;;5.49;47.93
35489;BME280;21602;55.670;37.578;2023-04-08T01:02:29;100295.28;;;5.47;47.92
35489;BME280;21602;55.670;37.578;2023-04-08T01:07:51;100296.47;;;5.44;48.00
35489;BME280;21602;55.670;37.578;2023-04-08T01:10:27;100292.50;;;5.40;48.49
35489;BME280;21602;55.670;37.578;2023-04-08T01:13:03;100297.19;;;5.38;48.25
35489;BME280;21602;55.670;37.578;2023-04-08T01:15:31;100297.38;;;5.36;48.15
35489;BME280;21602;55.670;37.578;2023-04-08T01:17:59;100294.88;;;5.35;48.89
35489;BME280;21602;55.670;37.578;2023-04-08T01:20:27;100294.25;;;5.33;48.85
35489;BME280;21602;55.670;37.578;2023-04-08T01:25:49;100299.53;;;5.33;48.90
35489;BME280;21602;55.670;37.578;2023-04-08T01:28:17;100294.75;;;5.28;48.92
35489;BME280;21602;55.670;37.578;2023-04-08T01:30:45;100301.22;;;5.26;49.17
35489;BME280;21602;55.670;37.578;2023-04-08T01:33:15;100295.28;;;5.24;49.24
35489;BME280;21602;55.670;37.578;2023-04-08T01:35:41;100296.63;;;5.20;49.30
35489;BME280;21602;55.670;37.578;2023-04-08T01:38:09;100297.63;;;5.19;49.35
35489;BME280;21602;55.670;37.578;2023-04-08T01:40:38;100295.50;;;5.14;49.85
35489;BME280;21602;55.670;37.578;2023-04-08T01:43:12;100301.34;;;5.09;49.75
35489;BME280;21602;55.670;37.578;2023-04-08T01:45:39;100295.06;;;5.02;49.62
35489;BME280;21602;55.670;37.578;2023-04-08T01:48:06;100299.91;;;4.99;49.93
35489;BME280;21602;55.670;37.578;2023-04-08T01:50:33;100294.13;;;4.95;49.98
35489;BME280;21602;55.670;37.578;2023-04-08T01:53:00;100295.13;;;4.94;49.83
35489;BME280;21602;55.670;37.578;2023-04-08T01:55:27;100294.78;;;4.97;50.01
35489;BME280;21602;55.670;37.578;2023-04-08T01:57:55;100306.84;;;5.00;50.28
35489;BME280;21602;55.670;37.578;2023-04-08T02:00:29;100302.19;;;5.02;50.29
35489;BME280;21602;55.670;37.578;2023-04-08T02:02:56;100302.88;;;5.04;50.41
35489;BME280;21602;55.670;37.578;2023-04-08T02:05:23;100294.91;;;5.04;50.50
35489;BME280;21602;55.670;37.578;2023-04-08T02:07:49;100299.41;;;5.03;50.64
35489;BME280;21602;55.670;37.578;2023-04-08T02:10:15;100299.72;;;5.00;50.74
35489;BME280;21602;55.670;37.578;2023-04-08T02:12:42;100293.78;;;4.98;50.72
35489;BME280;21602;55.670;37.578;2023-04-08T02:15:10;100298.44;;;4.96;50.87
35489;BME280;21602;55.670;37.578;2023-04-08T02:17:45;100303.06;;;4.94;51.00
35489;BME280;21602;55.670;37.578;2023-04-08T02:20:17;100297.50;;;4.89;51.34
35489;BME280;21602;55.670;37.578;2023-04-08T02:25:34;100298.53;;;4.80;51.50
35489;BME280;21602;55.670;37.578;2023-04-08T02:28:01;100298.56;;;4.72;51.58
35489;BME280;21602;55.670;37.578;2023-04-08T02:30:30;100302.56;;;4.59;51.70
35489;BME280;21602;55.670;37.578;2023-04-08T02:32:57;100303.56;;;4.58;51.58
35489;BME280;21602;55.670;37.578;2023-04-08T02:35:26;100309.03;;;4.57;51.88
35489;BME280;21602;55.670;37.578;2023-04-08T02:37:53;100307.53;;;4.54;51.60
35489;BME280;21602;55.670;37.578;2023-04-08T02:40:29;100306.06;;;4.52;51.77
35489;BME280;21602;55.670;37.578;2023-04-08T02:42:56;100308.72;;;4.52;51.91
35489;BME280;21602;55.670;37.578;2023-04-08T02:45:29;100310.53;;;4.51;51.94
35489;BME280;21602;55.670;37.578;2023-04-08T02:47:56;100310.69;;;4.50;52.04
35489;BME280;21602;55.670;37.578;2023-04-08T02:50:21;100310.88;;;4.48;52.22
35489;BME280;21602;55.670;37.578;2023-04-08T02:52:48;100322.44;;;4.47;52.15
35489;BME280;21602;55.670;37.578;2023-04-08T02:55:14;100312.19;;;4.44;52.00
35489;BME280;21602;55.670;37.578;2023-04-08T02:57:41;100314.50;;;4.47;52.21
35489;BME280;21602;55.670;37.578;2023-04-08T03:00:07;100315.47;;;4.46;52.19
35489;BME280;21602;55.670;37.578;2023-04-08T03:02:34;100315.16;;;4.49;52.24
35489;BME280;21602;55.670;37.578;2023-04-08T03:05:00;100316.97;;;4.49;52.24
35489;BME280;21602;55.670;37.578;2023-04-08T03:07:26;100314.97;;;4.51;52.29
35489;BME280;21602;55.670;37.578;2023-04-08T03:09:53;100314.81;;;4.52;52.63
35489;BME280;21602;55.670;37.578;2023-04-08T03:12:21;100311.34;;;4.52;52.24
35489;BME280;21602;55.670;37.578;2023-04-08T03:14:48;100313.19;;;4.51;52.34
35489;BME280;21602;55.670;37.578;2023-04-08T03:17:13;100320.13;;;4.52;52.37
35489;BME280;21602;55.670;37.578;2023-04-08T03:19:39;100322.91;;;4.51;52.53
35489;BME280;21602;55.670;37.578;2023-04-08T03:22:05;100327.38;;;4.50;52.50
35489;BME280;21602;55.670;37.578;2023-04-08T03:24:34;100327.88;;;4.54;52.67
35489;BME280;21602;55.670;37.578;2023-04-08T03:27:00;100321.75;;;4.53;52.58
35489;BME280;21602;55.670;37.578;2023-04-08T03:29:26;100314.16;;;4.50;52.76
35489;BME280;21602;55.670;37.578;2023-04-08T03:31:52;100326.41;;;4.51;52.51
35489;BME280;21602;55.670;37.578;2023-04-08T03:34:18;100325.03;;;4.55;52.85
35489;BME280;21602;55.670;37.578;2023-04-08T03:36:44;100321.06;;;4.59;52.60
35489;BME280;21602;55.670;37.578;2023-04-08T03:39:11;100322.88;;;4.59;52.60
35489;BME280;21602;55.670;37.578;2023-04-08T03:41:37;100326.34;;;4.59;52.78
35489;BME280;21602;55.670;37.578;2023-04-08T03:44:02;100328.84;;;4.61;52.75
35489;BME280;21602;55.670;37.578;2023-04-08T03:46:28;100326.03;;;4.62;53.28
35489;BME280;21602;55.670;37.578;2023-04-08T03:48:54;100321.38;;;4.65;53.80
35489;BME280;21602;55.670;37.578;2023-04-08T03:51:20;100326.50;;;4.66;53.21
35489;BME280;21602;55.670;37.578;2023-04-08T03:53:45;100330.69;;;4.60;53.04
35489;BME280;21602;55.670;37.578;2023-04-08T03:56:12;100329.81;;;4.60;52.72
35489;BME280;21602;55.670;37.578;2023-04-08T03:58:38;100328.66;;;4.62;52.93
35489;BME280;21602;55.670;37.578;2023-04-08T04:01:04;100330.50;;;4.62;52.77
35489;BME280;21602;55.670;37.578;2023-04-08T04:03:30;100329.50;;;4.63;52.86
35489;BME280;21602;55.670;37.578;2023-04-08T04:05:56;100333.25;;;4.69;52.99
35489;BME280;21602;55.670;37.578;2023-04-08T04:08:22;100330.94;;;4.74;52.97
35489;BME280;21602;55.670;37.578;2023-04-08T04:10:48;100333.94;;;4.71;52.94
35489;BME280;21602;55.670;37.578;2023-04-08T04:13:13;100337.56;;;4.70;53.03
35489;BME280;21602;55.670;37.578;2023-04-08T04:15:40;100330.28;;;4.72;53.11
35489;BME280;21602;55.670;37.578;2023-04-08T04:18:06;100330.28;;;4.72;53.08
35489;BME280;21602;55.670;37.578;2023-04-08T04:20:32;100334.59;;;4.65;53.07
35489;BME280;21602;55.670;37.578;2023-04-08T04:22:59;100330.69;;;4.60;53.17
35489;BME280;21602;55.670;37.578;2023-04-08T04:25:25;100336.94;;;4.59;53.29
35489;BME280;21602;55.670;37.578;2023-04-08T04:27:51;100332.25;;;4.70;53.33
35489;BME280;21602;55.670;37.578;2023-04-08T04:30:17;100335.88;;;4.77;53.22
35489;BME280;21602;55.670;37.578;2023-04-08T04:32:44;100336.00;;;4.83;53.29
35489;BME280;21602;55.670;37.578;2023-04-08T04:35:10;100338.66;;;4.83;53.19
35489;BME280;21602;55.670;37.578;2023-04-08T04:37:37;100339.47;;;4.84;53.20
35489;BME280;21602;55.670;37.578;2023-04-08T04:40:04;100334.19;;;4.84;54.40
35489;BME280;21602;55.670;37.578;2023-04-08T04:42:33;100341.41;;;4.98;53.84
35489;BME280;21602;55.670;37.578;2023-04-08T04:44:59;100342.97;;;5.16;53.93
35489;BME280;21602;55.670;37.578;2023-04-08T04:47:25;100342.03;;;5.31;53.93
35489;BME280;21602;55.670;37.578;2023-04-08T04:49:50;100335.88;;;5.39;53.04
35489;BME280;21602;55.670;37.578;2023-04-08T04:52:16;100347.25;;;5.48;52.76
35489;BME280;21602;55.670;37.578;2023-04-08T04:54:42;100339.78;;;5.51;52.74
35489;BME280;21602;55.670;37.578;2023-04-08T04:57:08;100345.25;;;5.50;52.54
35489;BME280;21602;55.670;37.578;2023-04-08T04:59:35;100342.25;;;5.53;52.77
35489;BME280;21602;55.670;37.578;2023-04-08T05:02:01;100340.00;;;5.64;52.85
35489;BME280;21602;55.670;37.578;2023-04-08T05:04:27;100339.03;;;5.65;52.43
35489;BME280;21602;55.670;37.578;2023-04-08T05:06:53;100342.25;;;5.76;53.00
35489;BME280;21602;55.670;37.578;2023-04-08T05:09:19;100343.38;;;5.81;52.79
35489;BME280;21602;55.670;37.578;2023-04-08T05:11:45;100346.44;;;5.93;52.44
35489;BME280;21602;55.670;37.578;2023-04-08T05:14:11;100355.97;;;6.02;52.70
35489;BME280;21602;55.670;37.578;2023-04-08T05:16:37;100356.72;;;6.11;52.49
35489;BME280;21602;55.670;37.578;2023-04-08T05:19:03;100361.50;;;6.30;52.64
35489;BME280;21602;55.670;37.578;2023-04-08T05:21:29;100360.00;;;6.51;52.16
35489;BME280;21602;55.670;37.578;2023-04-08T05:23:57;100358.97;;;6.66;51.90
35489;BME280;21602;55.670;37.578;2023-04-08T05:26:23;100362.09;;;6.70;51.50
35489;BME280;21602;55.670;37.578;2023-04-08T05:28:49;100364.56;;;6.72;52.23
35489;BME280;21602;55.670;37.578;2023-04-08T05:31:19;100364.09;;;6.83;52.05
35489;BME280;21602;55.670;37.578;2023-04-08T05:33:46;100369.84;;;6.86;51.58
35489;BME280;21602;55.670;37.578;2023-04-08T05:36:13;100369.13;;;6.78;51.11
35489;BME280;21602;55.670;37.578;2023-04-08T05:38:39;100374.25;;;6.64;51.25
35489;BME280;21602;55.670;37.578;2023-04-08T05:41:07;100372.44;;;6.65;51.95
35489;BME280;21602;55.670;37.578;2023-04-08T05:43:39;100370.41;;;6.82;51.90
35489;BME280;21602;55.670;37.578;2023-04-08T05:46:09;100365.53;;;7.00;51.78
35489;BME280;21602;55.670;37.578;2023-04-08T05:48:35;100363.56;;;7.24;52.15
35489;BME280;21602;55.670;37.578;2023-04-08T05:51:01;100368.53;;;7.48;51.97
35489;BME280;21602;55.670;37.578;2023-04-08T05:53:27;100373.44;;;7.66;50.75
35489;BME280;21602;55.670;37.578;2023-04-08T05:55:53;100370.72;;;7.81;50.82
35489;BME280;21602;55.670;37.578;2023-04-08T05:58:18;100368.19;;;7.94;50.67
35489;BME280;21602;55.670;37.578;2023-04-08T06:00:44;100370.88;;;8.01;49.81
35489;BME280;21602;55.670;37.578;2023-04-08T06:03:11;100363.09;;;7.99;49.83
35489;BME280;21602;55.670;37.578;2023-04-08T06:05:39;100362.97;;;8.07;49.12
35489;BME280;21602;55.670;37.578;2023-04-08T06:08:07;100367.44;;;8.07;50.04
35489;BME280;21602;55.670;37.578;2023-04-08T06:10:33;100365.75;;;7.99;49.93
35489;BME280;21602;55.670;37.578;2023-04-08T06:12:59;100362.66;;;7.95;49.37
35489;BME280;21602;55.670;37.578;2023-04-08T06:15:25;100368.88;;;8.03;49.99
35489;BME280;21602;55.670;37.578;2023-04-08T06:17:55;100360.25;;;8.01;49.58
35489;BME280;21602;55.670;37.578;2023-04-08T06:20:20;100360.03;;;8.02;49.20
35489;BME280;21602;55.670;37.578;2023-04-08T06:22:46;100364.22;;;8.11;49.37
35489;BME280;21602;55.670;37.578;2023-04-08T06:25:12;100363.47;;;8.17;49.38
35489;BME280;21602;55.670;37.578;2023-04-08T06:27:39;100359.41;;;8.21;50.08
35489;BME280;21602;55.670;37.578;2023-04-08T06:30:06;100365.47;;;8.37;50.27
35489;BME280;21602;55.670;37.578;2023-04-08T06:32:33;100363.28;;;8.47;49.64
35489;BME280;21602;55.670;37.578;2023-04-08T06:35:00;100366.19;;;8.52;49.02
35489;BME280;21602;55.670;37.578;2023-04-08T06:37:26;100364.78;;;8.56;48.44
35489;BME280;21602;55.670;37.578;2023-04-08T06:39:56;100366.84;;;8.61;48.27
35489;BME280;21602;55.670;37.578;2023-04-08T06:42:22;100366.84;;;8.61;48.29
35489;BME280;21602;55.670;37.578;2023-04-08T06:45:05;100362.56;;;8.60;48.21
35489;BME280;21602;55.670;37.578;2023-04-08T06:47:37;100370.31;;;8.55;48.10
35489;BME280;21602;55.670;37.578;2023-04-08T06:50:03;100361.41;;;8.41;47.76
35489;BME280;21602;55.670;37.578;2023-04-08T06:52:30;100368.28;;;8.35;48.32
35489;BME280;21602;55.670;37.578;2023-04-08T06:54:55;100373.34;;;8.30;48.17
35489;BME280;21602;55.670;37.578;2023-04-08T06:57:21;100368.69;;;8.32;48.51
35489;BME280;21602;55.670;37.578;2023-04-08T06:59:47;100372.06;;;8.41;48.38
35489;BME280;21602;55.670;37.578;2023-04-08T07:02:13;100369.22;;;8.49;49.18
35489;BME280;21602;55.670;37.578;2023-04-08T07:04:39;100363.56;;;8.59;49.55
35489;BME280;21602;55.670;37.578;2023-04-08T07:07:08;100377.94;;;8.64;48.01
35489;BME280;21602;55.670;37.578;2023-04-08T07:09:34;100376.09;;;8.65;48.30
35489;BME280;21602;55.670;37.578;2023-04-08T07:12:02;100370.38;;;8.68;47.95
35489;BME280;21602;55.670;37.578;2023-04-08T07:14:29;100363.78;;;8.64;48.20
35489;BME280;21602;55.670;37.578;2023-04-08T07:16:55;100369.53;;;8.67;48.04
35489;BME280;21602;55.670;37.578;2023-04-08T07:19:24;100364.88;;;8.69;47.56
35489;BME280;21602;55.670;37.578;2023-04-08T07:21:52;100362.59;;;8.66;48.17
35489;BME280;21602;55.670;37.578;2023-04-08T07:24:18;100358.38;;;8.79;51.38
35489;BME280;21602;55.670;37.578;2023-04-08T07:26:44;100363.78;;;9.05;49.47
35489;BME280;21602;55.670;37.578;2023-04-08T07:29:10;100365.31;;;9.28;49.04
35489;BME280;21602;55.670;37.578;2023-04-08T07:31:36;100355.34;;;9.49;48.31
35489;BME280;21602;55.670;37.578;2023-04-08T07:34:03;100363.97;;;9.71;51.72
35489;BME280;21602;55.670;37.578;2023-04-08T07:36:29;100355.19;;;9.91;48.80
35489;BME280;21602;55.670;37.578;2023-04-08T07:38:54;100354.38;;;9.84;47.05
35489;BME280;21602;55.670;37.578;2023-04-08T07:41:20;100365.00;;;9.70;47.09
35489;BME280;21602;55.670;37.578;2023-04-08T07:43:46;100364.38;;;9.68;46.92
35489;BME280;21602;55.670;37.578;2023-04-08T07:46:12;100354.75;;;9.67;47.01
35489;BME280;21602;55.670;37.578;2023-04-08T07:48:38;100355.38;;;9.69;46.99
35489;BME280;21602;55.670;37.578;2023-04-08T07:51:05;100357.44;;;9.74;47.59
35489;BME280;21602;55.670;37.578;2023-04-08T07:53:32;100362.97;;;9.86;47.77
35489;BME280;21602;55.670;37.578;2023-04-08T07:56:00;100356.03;;;9.98;47.03
35489;BME280;21602;55.670;37.578;2023-04-08T07:58:28;100362.38;;;9.97;46.57
35489;BME280;21602;55.670;37.578;2023-04-08T08:00:56;100357.84;;;10.04;46.59
35489;BME280;21602;55.670;37.578;2023-04-08T08:03:23;100358.25;;;10.14;47.14
35489;BME280;21602;55.670;37.578;2023-04-08T08:05:49;100358.69;;;10.18;46.25
35489;BME280;21602;55.670;37.578;2023-04-08T08:08:20;100357.69;;;10.25;46.20
35489;BME280;21602;55.670;37.578;2023-04-08T08:10:45;100359.94;;;10.29;46.39
35489;BME280;21602;55.670;37.578;2023-04-08T08:13:11;100363.19;;;10.44;46.15
35489;BME280;21602;55.670;37.578;2023-04-08T08:15:41;100352.28;;;10.65;46.19
35489;BME280;21602;55.670;37.578;2023-04-08T08:18:10;100354.84;;;10.92;45.69
35489;BME280;21602;55.670;37.578;2023-04-08T08:20:45;100350.28;;;11.12;46.05
35489;BME280;21602;55.670;37.578;2023-04-08T08:23:11;100353.72;;;11.19;44.99
35489;BME280;21602;55.670;37.578;2023-04-08T08:25:37;100350.84;;;11.21;44.43
35489;BME280;21602;55.670;37.578;2023-04-08T08:28:03;100344.47;;;11.15;46.07
35489;BME280;21602;55.670;37.578;2023-04-08T08:30:29;100344.25;;;11.23;45.58
35489;BME280;21602;55.670;37.578;2023-04-08T08:32:58;100345.97;;;11.43;45.24
35489;BME280;21602;55.670;37.578;2023-04-08T08:35:28;100339.69;;;11.62;44.88
35489;BME280;21602;55.670;37.578;2023-04-08T08:37:54;100340.38;;;11.89;44.79
35489;BME280;21602;55.670;37.578;2023-04-08T08:40:20;100331.41;;;12.02;44.16
35489;BME280;21602;55.670;37.578;2023-04-08T08:42:50;100329.44;;;12.16;43.37
35489;BME280;21602;55.670;37.578;2023-04-08T08:45:18;100332.56;;;12.13;43.92
35489;BME280;21602;55.670;37.578;2023-04-08T08:47:45;100328.44;;;12.10;43.39
35489;BME280;21602;55.670;37.578;2023-04-08T08:50:11;100328.28;;;12.05;43.08
35489;BME280;21602;55.670;37.578;2023-04-08T08:52:37;100325.28;;;11.95;43.04
35489;BME280;21602;55.670;37.578;2023-04-08T08:55:03;100325.75;;;11.92;43.29
35489;BME280;21602;55.670;37.578;2023-04-08T08:57:31;100330.22;;;11.98;42.39
35489;BME280;21602;55.670;37.578;2023-04-08T09:00:00;100332.00;;;12.04;43.11
35489;BME280;21602;55.670;37.578;2023-04-08T09:02:30;100331.41;;;12.02;41.65
35489;BME280;21602;55.670;37.578;2023-04-08T09:05:02;100335.09;;;12.01;42.31
35489;BME280;21602;55.670;37.578;2023-04-08T09:07:36;100326.41;;;12.05;43.26
35489;BME280;21602;55.670;37.578;2023-04-08T09:10:05;100322.50;;;12.08;42.24
35489;BME280;21602;55.670;37.578;2023-04-08T09:12:31;100316.34;;;12.08;41.93
35489;BME280;21602;55.670;37.578;2023-04-08T09:15:04;100321.13;;;11.99;40.95
35489;BME280;21602;55.670;37.578;2023-04-08T09:17:36;100325.91;;;11.97;41.52
35489;BME280;21602;55.670;37.578;2023-04-08T09:20:07;100325.09;;;12.15;41.17
35489;BME280;21602;55.670;37.578;2023-04-08T09:23:00;100329.03;;;12.37;40.71
35489;BME280;21602;55.670;37.578;2023-04-08T09:25:28;100330.72;;;12.32;40.76
35489;BME280;21602;55.670;37.578;2023-04-08T09:27:56;100326.13;;;12.39;42.01
35489;BME280;21602;55.670;37.578;2023-04-08T09:30:31;100326.94;;;12.57;40.58
35489;BME280;21602;55.670;37.578;2023-04-08T09:32:57;100320.06;;;12.68;40.53
35489;BME280;21602;55.670;37.578;2023-04-08T09:35:24;100325.47;;;12.62;39.48
35489;BME280;21602;55.670;37.578;2023-04-08T09:37:50;100330.91;;;12.55;40.76
35489;BME280;21602;55.670;37.578;2023-04-08T09:40:17;100316.91;;;12.35;41.05
35489;BME280;21602;55.670;37.578;2023-04-08T09:42:44;100311.75;;;12.33;40.05
35489;BME280;21602;55.670;37.578;2023-04-08T09:45:15;100312.13;;;12.37;40.53
35489;BME280;21602;55.670;37.578;2023-04-08T09:48:17;100316.03;;;12.41;40.34
35489;BME280;21602;55.670;37.578;2023-04-08T09:50:49;100315.56;;;12.25;40.49
35489;BME280;21602;55.670;37.578;2023-04-08T09:53:26;100307.59;;;12.37;41.21
35489;BME280;21602;55.670;37.578;2023-04-08T09:55:56;100311.25;;;12.43;41.21
35489;BME280;21602;55.670;37.578;2023-04-08T09:58:33;100308.88;;;12.53;40.72
35489;BME280;21602;55.670;37.578;2023-04-08T10:01:04;100300.25;;;12.69;40.41
35489;BME280;21602;55.670;37.578;2023-04-08T10:03:39;100302.41;;;12.79;41.86
35489;BME280;21602;55.670;37.578;2023-04-08T10:06:09;100292.06;;;12.64;40.24
35489;BME280;21602;55.670;37.578;2023-04-08T10:08:38;100291.31;;;12.57;41.15
35489;BME280;21602;55.670;37.578;2023-04-08T10:11:08;100300.91;;;12.65;39.52
35489;BME280;21602;55.670;37.578;2023-04-08T10:13:35;100302.84;;;12.76;40.40
35489;BME280;21602;55.670;37.578;2023-04-08T10:16:22;100306.03;;;13.03;40.42
35489;BME280;21602;55.670;37.578;2023-04-08T10:18:50;100300.50;;;13.16;40.15
35489;BME280;21602;55.670;37.578;2023-04-08T10:21:38;100290.31;;;13.25;39.32
35489;BME280;21602;55.670;37.578;2023-04-08T10:24:09;100290.44;;;13.30;40.11
35489;BME280;21602;55.670;37.578;2023-04-08T10:26:43;100296.13;;;13.33;39.50
35489;BME280;21602;55.670;37.578;2023-04-08T10:31:53;100289.06;;;13.39;39.68
35489;BME280;21602;55.670;37.578;2023-04-08T10:34:20;100290.59;;;13.47;39.77
35489;BME280;21602;55.670;37.578;2023-04-08T10:36:48;100295.50;;;13.50;39.30
35489;BME280;21602;55.670;37.578;2023-04-08T10:39:15;100280.34;;;13.44;39.05
35489;BME280;21602;55.670;37.578;2023-04-08T10:41:45;100286.16;;;13.41;39.26
35489;BME280;21602;55.670;37.578;2023-04-08T10:44:19;100279.78;;;13.23;40.36
35489;BME280;21602;55.670;37.578;2023-04-08T10:46:52;100283.34;;;13.17;39.92
35489;BME280;21602;55.670;37.578;2023-04-08T10:49:18;100280.03;;;13.33;39.79
35489;BME280;21602;55.670;37.578;2023-04-08T10:51:47;100276.59;;;13.45;39.66
35489;BME280;21602;55.670;37.578;2023-04-08T10:54:15;100269.97;;;13.59;39.63
35489;BME280;21602;55.670;37.578;2023-04-08T10:56:42;100267.88;;;13.61;38.72
35489;BME280;21602;55.670;37.578;2023-04-08T10:59:09;100265.44;;;13.71;39.21
35489;BME280;21602;55.670;37.578;2023-04-08T11:01:38;100263.22;;;13.80;38.99
35489;BME280;21602;55.670;37.578;2023-04-08T11:04:12;100266.38;;;13.89;38.65
35489;BME280;21602;55.670;37.578;2023-04-08T11:06:38;100263.47;;;13.78;39.33
35489;BME280;21602;55.670;37.578;2023-04-08T11:09:06;100260.66;;;13.85;39.54
35489;BME280;21602;55.670;37.578;2023-04-08T11:11:33;100256.59;;;13.94;39.33
35489;BME280;21602;55.670;37.578;2023-04-08T11:13:59;100252.03;;;14.06;38.70
35489;BME280;21602;55.670;37.578;2023-04-08T11:16:26;100244.56;;;13.97;38.29
35489;BME280;21602;55.670;37.578;2023-04-08T11:18:54;100252.63;;;13.97;38.17
35489;BME280;21602;55.670;37.578;2023-04-08T11:21:24;100246.78;;;14.00;37.97
35489;BME280;21602;55.670;37.578;2023-04-08T11:23:54;100247.03;;;14.10;38.13
35489;BME280;21602;55.670;37.578;2023-04-08T11:26:21;100248.66;;;14.11;38.15
35489;BME280;21602;55.670;37.578;2023-04-08T11:28:47;100246.91;;;14.17;38.21
35489;BME280;21602;55.670;37.578;2023-04-08T11:31:15;100244.22;;;14.17;38.06
35489;BME280;21602;55.670;37.578;2023-04-08T11:33:46;100241.28;;;14.18;37.66
35489;BME280;21602;55.670;37.578;2023-04-08T11:36:17;100245.38;;;14.09;37.72
35489;BME280;21602;55.670;37.578;2023-04-08T11:38:43;100240.69;;;14.04;37.98
35489;BME280;21602;55.670;37.578;2023-04-08T11:41:09;100244.34;;;14.10;37.86
35489;BME280;21602;55.670;37.578;2023-04-08T11:43:36;100241.88;;;14.20;38.26
35489;BME280;21602;55.670;37.578;2023-04-08T11:46:12;100236.97;;;14.17;38.22
35489;BME280;21602;55.670;37.578;2023-04-08T11:48:39;100235.34;;;14.04;38.92
35489;BME280;21602;55.670;37.578;2023-04-08T11:51:06;100231.47;;;14.00;39.45
35489;BME280;21602;55.670;37.578;2023-04-08T11:53:37;100231.63;;;14.05;39.00
35489;BME280;21602;55.670;37.578;2023-04-08T11:56:29;100228.81;;;14.12;38.67
35489;BME280;21602;55.670;37.578;2023-04-08T11:58:55;100226.00;;;14.07;38.75
35489;BME280;21602;55.670;37.578;2023-04-08T12:01:21;100228.09;;;14.05;39.04
35489;BME280;21602;55.670;37.578;2023-04-08T12:03:59;100229.97;;;13.93;39.24
35489;BME280;21602;55.670;37.578;2023-04-08T12:06:26;100227.19;;;13.88;39.98
35489;BME280;21602;55.670;37.578;2023-04-08T12:08:54;100221.59;;;13.77;39.78
35489;BME280;21602;55.670;37.578;2023-04-08T12:11:20;100214.91;;;13.56;39.34
35489;BME280;21602;55.670;37.578;2023-04-08T12:13:47;100211.16;;;13.57;39.47
35489;BME280;21602;55.670;37.578;2023-04-08T12:16:15;100219.59;;;13.73;40.01
35489;BME280;21602;55.670;37.578;2023-04-08T12:18:41;100218.44;;;13.92;39.83
35489;BME280;21602;55.670;37.578;2023-04-08T12:21:07;100217.03;;;14.01;39.53
35489;BME280;21602;55.670;37.578;2023-04-08T12:23:38;100216.22;;;14.01;39.66
35489;BME280;21602;55.670;37.578;2023-04-08T12:26:05;100215.13;;;14.14;40.13
35489;BME280;21602;55.670;37.578;2023-04-08T12:28:34;100205.88;;;14.33;40.06
35489;BME280;21602;55.670;37.578;2023-04-08T12:31:00;100207.63;;;14.51;40.00
35489;BME280;21602;55.670;37.578;2023-04-08T12:33:26;100212.25;;;14.67;39.29
35489;BME280;21602;55.670;37.578;2023-04-08T12:35:52;100210.69;;;14.71;39.26
35489;BME280;21602;55.670;37.578;2023-04-08T12:38:18;100205.84;;;14.85;39.77
35489;BME280;21602;55.670;37.578;2023-04-08T12:40:44;100194.56;;;15.00;39.36
35489;BME280;21602;55.670;37.578;2023-04-08T12:43:10;100200.34;;;14.92;39.41
35489;BME280;21602;55.670;37.578;2023-04-08T12:45:37;100187.06;;;15.02;39.76
35489;BME280;21602;55.670;37.578;2023-04-08T12:48:03;100189.94;;;15.12;38.96
35489;BME280;21602;55.670;37.578;2023-04-08T12:50:29;100183.06;;;14.88;38.52
35489;BME280;21602;55.670;37.578;2023-04-08T12:52:55;100184.50;;;14.78;39.04
35489;BME280;21602;55.670;37.578;2023-04-08T12:55:21;100178.94;;;14.68;39.04
35489;BME280;21602;55.670;37.578;2023-04-08T12:57:50;100177.19;;;14.62;38.61
35489;BME280;21602;55.670;37.578;2023-04-08T13:00:16;100180.09;;;14.72;39.87